Port Nolloth, South Africa
Current Conditions -  °F | °C
As of 11:00 PM on Thursday 23 Oct 2014 (Local Time) from FAUP Reporting Station
NA  
Wind Chill: 72°   Ceiling: NA
Heat Index: 72°   Visibility: NA
Dew Point: 16°   Wind: 8mph
Humidity: 12%   Direction: 250°WSW
Pressure: 29.94"   Gusts: NA
Location:  29.24°S, 16.88°E
Report Text: FAUP 232100Z AUTO 25007KT //// // ////// 22/M09 Q1014
Loading
Personal Weather Stations






























Interactive Weather Map
Tropical Storm Tracking
New forecast layout! Learn more

10-Day Weather Forecast

Advertisements
Track Severe Weather on mobile